Time;durP1;ratioP1;P1;durP2;ratioP2;P2;SDS_P1;SDS_P2;PMS_P1;PMS_P2;Temp;Humidity;BMP_temperature;BMP_pressure;BME280_temperature;BME280_humidity;BME280_pressure;Samples;Min_cycle;Max_cycle;Signal;HPM_P1;HPM_P2
2022/07/10 00:01:29;;;;;;;2.50;2.40;;;15.90;99.90;;;;;;483820;245;28857;-69
2022/07/10 00:03:31;;;;;;;2.80;2.57;;;15.90;99.90;;;;;;483760;245;28841;-71
2022/07/10 00:05:34;;;;;;;2.77;2.50;;;15.80;99.90;;;;;;483835;245;28832;-70
2022/07/10 00:07:33;;;;;;;2.33;2.23;;;15.80;99.90;;;;;;483666;246;28755;-69
2022/07/10 00:09:35;;;;;;;3.03;2.73;;;15.80;99.90;;;;;;483848;245;29346;-71
2022/07/10 00:11:36;;;;;;;3.63;2.67;;;15.70;99.90;;;;;;483834;245;29269;-69
2022/07/10 00:13:37;;;;;;;2.80;2.60;;;15.70;99.90;;;;;;483810;245;29305;-70
2022/07/10 00:15:38;;;;;;;2.87;2.60;;;15.70;99.90;;;;;;483857;245;29197;-69
2022/07/10 00:17:40;;;;;;;2.20;2.10;;;15.60;99.90;;;;;;483815;245;28858;-69
2022/07/10 00:19:41;;;;;;;2.90;2.20;;;15.60;99.90;;;;;;483837;245;28868;-73
2022/07/10 00:21:42;;;;;;;2.33;2.23;;;15.60;99.90;;;;;;483858;245;28738;-70
2022/07/10 00:23:43;;;;;;;2.50;2.30;;;15.50;99.90;;;;;;483850;245;28844;-70
2022/07/10 00:25:45;;;;;;;3.80;2.77;;;15.50;99.90;;;;;;483854;245;28860;-71
2022/07/10 00:27:46;;;;;;;4.10;2.20;;;15.50;99.90;;;;;;483786;245;28781;-69
2022/07/10 00:29:47;;;;;;;3.07;2.37;;;15.50;99.90;;;;;;483841;245;29231;-72
2022/07/10 00:31:48;;;;;;;2.30;2.10;;;15.40;99.90;;;;;;483831;245;28428;-69
2022/07/10 00:33:51;;;;;;;2.37;2.27;;;15.40;99.90;;;;;;483804;245;29282;-71
2022/07/10 00:35:51;;;;;;;2.00;1.90;;;15.30;99.90;;;;;;483763;246;29291;-70
2022/07/10 00:37:52;;;;;;;2.37;2.17;;;15.30;99.90;;;;;;483802;245;29358;-69
2022/07/10 00:39:53;;;;;;;2.00;1.90;;;15.30;99.90;;;;;;483820;245;29284;-73
2022/07/10 00:41:55;;;;;;;2.77;2.17;;;15.30;99.90;;;;;;483820;245;28528;-69
2022/07/10 00:43:56;;;;;;;2.00;1.90;;;15.20;99.90;;;;;;483805;245;28849;-71
2022/07/10 00:45:57;;;;;;;2.57;2.23;;;15.20;99.90;;;;;;483832;245;28740;-69
2022/07/10 00:48:00;;;;;;;2.20;2.10;;;15.30;99.90;;;;;;483809;245;28860;-69
2022/07/10 00:50:00;;;;;;;2.30;2.10;;;15.30;99.90;;;;;;483773;245;28895;-72
2022/07/10 00:52:01;;;;;;;2.70;2.00;;;15.30;99.90;;;;;;483820;245;28828;-69
2022/07/10 00:54:02;;;;;;;2.30;2.20;;;15.10;99.90;;;;;;483815;245;28801;-70
2022/07/10 00:56:03;;;;;;;2.20;2.03;;;15.00;99.90;;;;;;483806;245;28796;-69
2022/07/10 00:58:05;;;;;;;2.67;2.23;;;15.00;99.90;;;;;;483824;245;28785;-69
2022/07/10 01:00:06;;;;;;;5.50;2.53;;;14.90;99.90;;;;;;483790;245;29289;-70
2022/07/10 01:02:07;;;;;;;3.13;2.60;;;14.80;99.90;;;;;;483869;245;29210;-69
2022/07/10 01:04:08;;;;;;;3.30;2.50;;;14.80;99.90;;;;;;483824;245;29260;-70
2022/07/10 01:06:10;;;;;;;2.13;1.90;;;14.80;99.90;;;;;;483807;245;28451;-69
2022/07/10 01:08:11;;;;;;;5.23;2.43;;;14.80;99.90;;;;;;483807;245;28843;-70
2022/07/10 01:10:12;;;;;;;2.20;2.10;;;14.80;99.90;;;;;;483819;245;28838;-72
2022/07/10 01:12:13;;;;;;;1.87;1.77;;;14.80;99.90;;;;;;483805;245;28428;-69
2022/07/10 01:14:15;;;;;;;3.50;2.43;;;14.80;99.90;;;;;;483815;245;28859;-70
2022/07/10 01:16:16;;;;;;;2.07;1.97;;;14.80;99.90;;;;;;483831;245;28399;-69
2022/07/10 01:18:17;;;;;;;2.60;2.10;;;14.80;99.90;;;;;;483828;245;28557;-69
2022/07/10 01:20:18;;;;;;;2.10;1.90;;;14.70;99.90;;;;;;483828;245;29155;-71
2022/07/10 01:22:20;;;;;;;1.70;1.60;;;14.60;99.90;;;;;;483820;245;28245;-69
2022/07/10 01:24:21;;;;;;;2.40;2.20;;;14.60;99.90;;;;;;483807;245;28955;-70
2022/07/10 01:26:23;;;;;;;2.50;2.03;;;14.50;99.90;;;;;;483795;245;29200;-70
2022/07/10 01:28:23;;;;;;;2.60;2.40;;;14.50;99.90;;;;;;483766;245;28684;-69
2022/07/10 01:30:25;;;;;;;2.20;2.00;;;14.50;99.90;;;;;;483838;245;28461;-72
2022/07/10 01:32:26;;;;;;;3.20;2.50;;;14.50;99.90;;;;;;483819;245;28502;-69
2022/07/10 01:34:27;;;;;;;2.90;2.63;;;14.40;99.90;;;;;;483830;245;28536;-70
2022/07/10 01:36:28;;;;;;;2.30;2.20;;;14.40;99.90;;;;;;483802;245;28088;-70
2022/07/10 01:38:30;;;;;;;2.77;2.30;;;14.40;99.90;;;;;;483806;245;28418;-69
2022/07/10 01:40:31;;;;;;;2.10;1.90;;;14.40;99.90;;;;;;483821;245;28704;-72
2022/07/10 01:42:32;;;;;;;3.47;2.03;;;14.40;99.90;;;;;;483850;245;28304;-69
2022/07/10 01:44:33;;;;;;;2.37;2.17;;;14.40;99.90;;;;;;483849;245;28461;-69
2022/07/10 01:46:35;;;;;;;2.93;2.17;;;14.30;99.90;;;;;;483834;245;28210;-69
2022/07/10 01:48:36;;;;;;;2.40;2.20;;;14.30;99.90;;;;;;483852;245;28963;-69
2022/07/10 01:50:38;;;;;;;2.73;2.20;;;14.30;99.90;;;;;;483824;245;28740;-70
2022/07/10 01:52:38;;;;;;;2.40;2.20;;;14.30;99.90;;;;;;483774;246;28966;-69
2022/07/10 01:54:40;;;;;;;2.17;2.00;;;14.30;99.90;;;;;;483816;245;28172;-70
2022/07/10 01:56:41;;;;;;;2.30;2.10;;;14.20;99.90;;;;;;483813;245;28332;-69
2022/07/10 01:58:42;;;;;;;2.80;2.17;;;14.10;99.90;;;;;;483796;245;28439;-69
2022/07/10 02:00:44;;;;;;;2.13;2.03;;;14.10;99.90;;;;;;483772;245;28140;-69
2022/07/10 02:04:40;;;;;;;2.17;1.97;;;14.10;99.90;;;;;;483793;245;28214;-70
2022/07/10 02:04:47;;;;;;;2.10;1.90;;;;;;;;;;482078;246;28378;-71
2022/07/10 02:06:48;;;;;;;2.90;2.27;;;14.00;99.90;;;;;;483826;245;27046;-70
2022/07/10 02:08:50;;;;;;;1.87;1.77;;;14.00;99.90;;;;;;483804;245;28258;-69
2022/07/10 02:10:51;;;;;;;2.00;1.90;;;14.00;99.90;;;;;;483820;245;28526;-68
2022/07/10 02:12:52;;;;;;;1.80;1.70;;;14.10;99.90;;;;;;483824;245;28278;-72
2022/07/10 02:14:56;;;;;;;2.27;2.07;;;14.10;99.90;;;;;;483823;245;28307;-69
2022/07/10 02:16:55;;;;;;;2.20;1.90;;;14.10;99.90;;;;;;483611;246;28273;-70
2022/07/10 02:18:56;;;;;;;1.90;1.80;;;14.10;99.90;;;;;;483802;245;28315;-69
2022/07/10 02:20:57;;;;;;;2.20;2.00;;;14.20;99.90;;;;;;483815;245;28361;-69
2022/07/10 02:22:58;;;;;;;2.50;1.80;;;14.20;99.90;;;;;;483821;245;28443;-70
2022/07/10 02:25:00;;;;;;;1.90;1.80;;;14.20;99.90;;;;;;483816;245;28447;-70
2022/07/10 02:27:01;;;;;;;2.10;2.00;;;14.10;99.90;;;;;;483798;245;28852;-69
2022/07/10 02:29:02;;;;;;;1.67;1.57;;;14.10;99.90;;;;;;483819;245;28894;-71
2022/07/10 02:31:03;;;;;;;2.10;2.00;;;14.00;99.90;;;;;;483814;245;28697;-69
2022/07/10 02:33:05;;;;;;;1.93;1.83;;;14.00;99.90;;;;;;483810;245;28351;-72
2022/07/10 02:35:06;;;;;;;2.17;2.00;;;13.90;99.90;;;;;;483805;246;28504;-70
2022/07/10 02:37:07;;;;;;;3.07;2.53;;;13.80;99.90;;;;;;483813;245;28255;-69
2022/07/10 02:39:08;;;;;;;2.20;2.00;;;13.80;99.90;;;;;;483800;245;28312;-69
2022/07/10 02:41:10;;;;;;;2.13;2.03;;;13.70;99.90;;;;;;483804;245;28489;-69
2022/07/10 02:43:11;;;;;;;3.37;2.07;;;13.70;99.90;;;;;;483815;245;28231;-72
2022/07/10 02:45:12;;;;;;;2.50;2.10;;;13.70;99.90;;;;;;483772;245;28317;-69
2022/07/10 02:47:13;;;;;;;2.27;2.07;;;13.60;99.90;;;;;;483813;245;28217;-70
2022/07/10 02:49:15;;;;;;;2.43;2.13;;;13.50;99.90;;;;;;483855;245;28118;-69
2022/07/10 02:51:16;;;;;;;2.30;2.10;;;13.50;99.90;;;;;;483825;245;28650;-69
2022/07/10 02:53:17;;;;;;;2.50;2.30;;;13.40;99.90;;;;;;483836;245;28716;-72
2022/07/10 02:55:18;;;;;;;1.90;1.80;;;13.40;99.90;;;;;;483853;245;28664;-69
2022/07/10 02:57:20;;;;;;;2.23;2.13;;;13.40;99.90;;;;;;483827;245;28159;-69
2022/07/10 02:59:21;;;;;;;2.80;2.60;;;13.40;99.90;;;;;;483847;245;28182;-68
2022/07/10 03:01:22;;;;;;;2.20;2.10;;;13.50;99.90;;;;;;483822;245;28140;-69
2022/07/10 03:03:23;;;;;;;2.60;2.40;;;13.40;99.90;;;;;;483851;245;28230;-71
2022/07/10 03:05:25;;;;;;;2.77;2.53;;;13.40;99.90;;;;;;483817;245;28232;-69
2022/07/10 03:07:26;;;;;;;2.37;2.23;;;13.50;99.90;;;;;;483802;245;28159;-70
2022/07/10 03:09:27;;;;;;;2.57;2.37;;;13.40;99.90;;;;;;483795;245;28189;-69
2022/07/10 03:11:28;;;;;;;3.80;2.30;;;13.30;99.90;;;;;;483805;245;28223;-69
2022/07/10 03:13:30;;;;;;;2.63;2.40;;;13.30;99.90;;;;;;483806;245;28143;-71
2022/07/10 03:15:31;;;;;;;2.47;2.27;;;13.40;99.90;;;;;;483820;245;28688;-69
2022/07/10 03:17:32;;;;;;;2.20;2.10;;;13.20;99.90;;;;;;483788;245;28623;-69
2022/07/10 03:19:35;;;;;;;2.23;2.03;;;;;;;;;;483810;245;28649;-69
2022/07/10 03:21:36;;;;;;;2.70;2.10;;;13.30;99.90;;;;;;483809;245;26547;-72
2022/07/10 03:23:39;;;;;;;2.37;2.17;;;13.30;99.90;;;;;;483787;245;28175;-69
2022/07/10 03:25:38;;;;;;;2.53;2.27;;;13.30;99.90;;;;;;483707;246;28138;-70
2022/07/10 03:27:40;;;;;;;3.43;2.37;;;13.20;99.90;;;;;;486940;241;27971;-68
2022/07/10 03:29:41;;;;;;;2.57;2.37;;;13.20;99.90;;;;;;487286;244;28621;-70
2022/07/10 03:31:42;;;;;;;2.33;2.20;;;13.20;99.90;;;;;;487310;244;28686;-72
2022/07/10 03:33:43;;;;;;;2.50;2.30;;;13.20;99.90;;;;;;487291;244;28617;-69
2022/07/10 03:35:45;;;;;;;2.97;2.23;;;13.20;99.90;;;;;;487317;241;28481;-70
2022/07/10 03:37:46;;;;;;;4.10;2.57;;;13.20;99.90;;;;;;487282;244;28070;-68
2022/07/10 03:39:47;;;;;;;2.20;2.00;;;13.20;99.90;;;;;;487269;244;28657;-68
2022/07/10 03:41:48;;;;;;;1.83;1.73;;;13.20;99.90;;;;;;487319;244;28126;-72
2022/07/10 03:43:50;;;;;;;2.50;2.30;;;13.10;99.90;;;;;;487290;244;28213;-69
2022/07/10 03:45:51;;;;;;;2.37;2.17;;;13.10;99.90;;;;;;487318;244;28080;-70
2022/07/10 03:47:52;;;;;;;3.03;2.50;;;13.00;99.90;;;;;;487310;244;28085;-69
2022/07/10 03:49:53;;;;;;;2.67;2.47;;;12.90;99.90;;;;;;487298;244;28201;-69
2022/07/10 03:51:55;;;;;;;3.00;2.67;;;12.80;99.90;;;;;;487295;244;28127;-71
2022/07/10 03:53:57;;;;;;;3.40;2.50;;;;;;;;;;487293;244;29000;-71
2022/07/10 03:56:00;;;;;;;3.00;2.50;;;12.80;99.90;;;;;;487329;241;26437;-68
2022/07/10 03:58:02;;;;;;;2.60;2.40;;;12.80;99.90;;;;;;487301;244;28106;-70
2022/07/10 04:00:01;;;;;;;3.63;2.40;;;12.80;99.90;;;;;;487287;244;28337;-72
2022/07/10 04:02:02;;;;;;;3.30;2.50;;;12.80;99.90;;;;;;487307;244;28434;-69
2022/07/10 04:04:03;;;;;;;2.30;2.10;;;12.80;99.90;;;;;;487305;244;28473;-69
2022/07/10 04:06:06;;;;;;;3.83;2.70;;;;;;;;;;487320;244;28495;-67
2022/07/10 04:08:08;;;;;;;3.50;2.83;;;12.60;99.90;;;;;;487316;241;26798;-73
2022/07/10 04:10:09;;;;;;;2.53;2.33;;;12.70;99.90;;;;;;487296;244;28558;-69
2022/07/10 04:12:09;;;;;;;3.40;2.30;;;12.60;99.90;;;;;;487313;244;28713;-70
2022/07/10 04:14:11;;;;;;;2.63;2.50;;;12.70;99.90;;;;;;487318;244;28549;-69
2022/07/10 04:16:13;;;;;;;4.67;2.80;;;12.60;99.90;;;;;;487298;244;28459;-70
2022/07/10 04:18:13;;;;;;;5.33;2.33;;;12.70;99.90;;;;;;487283;244;28975;-73
2022/07/10 04:20:15;;;;;;;2.30;2.10;;;12.60;99.90;;;;;;487323;244;27962;-69
2022/07/10 04:22:16;;;;;;;2.40;2.20;;;12.60;99.90;;;;;;487281;244;28578;-71
2022/07/10 04:24:17;;;;;;;3.17;2.53;;;12.60;99.90;;;;;;487350;244;28270;-69
2022/07/10 04:26:18;;;;;;;2.70;2.10;;;12.60;99.90;;;;;;487320;244;28074;-68
2022/07/10 04:28:19;;;;;;;3.60;2.53;;;12.70;99.90;;;;;;487314;244;27888;-69
2022/07/10 04:30:21;;;;;;;10.20;2.60;;;12.70;99.90;;;;;;487316;244;28174;-69
2022/07/10 04:32:22;;;;;;;3.30;2.50;;;12.70;99.90;;;;;;487301;244;28317;-70
2022/07/10 04:34:23;;;;;;;2.73;2.53;;;12.70;99.90;;;;;;487320;244;28092;-69
2022/07/10 04:36:25;;;;;;;4.13;2.47;;;12.80;99.90;;;;;;487300;244;29144;-70
2022/07/10 04:38:26;;;;;;;2.80;2.40;;;12.80;99.90;;;;;;487327;244;28662;-72
2022/07/10 04:40:27;;;;;;;5.07;2.30;;;12.80;99.90;;;;;;487307;244;28524;-69
2022/07/10 04:42:28;;;;;;;3.00;2.40;;;12.80;99.90;;;;;;487285;244;28606;-70
2022/07/10 04:44:30;;;;;;;2.67;2.43;;;12.80;99.90;;;;;;487295;244;28863;-69
2022/07/10 04:46:31;;;;;;;2.50;2.30;;;12.90;99.90;;;;;;487013;244;28225;-69
2022/07/10 04:48:32;;;;;;;4.50;3.20;;;12.90;99.90;;;;;;487294;244;28077;-73
2022/07/10 04:50:33;;;;;;;2.50;2.30;;;12.90;99.90;;;;;;487281;244;28079;-69
2022/07/10 04:52:35;;;;;;;2.50;2.30;;;12.90;99.90;;;;;;487278;244;28090;-71
2022/07/10 04:54:36;;;;;;;5.43;2.70;;;13.00;99.90;;;;;;487299;244;27942;-69
2022/07/10 04:56:37;;;;;;;2.30;2.20;;;13.00;99.90;;;;;;487312;244;28107;-69
2022/07/10 04:58:38;;;;;;;2.30;2.20;;;13.10;99.90;;;;;;487310;244;28690;-73
2022/07/10 05:00:40;;;;;;;2.43;2.23;;;13.00;99.90;;;;;;487312;244;28829;-70
2022/07/10 05:02:41;;;;;;;2.43;2.20;;;13.00;99.90;;;;;;487272;244;28470;-71
2022/07/10 05:04:42;;;;;;;4.40;2.73;;;12.90;99.90;;;;;;487284;244;28520;-70
2022/07/10 05:06:43;;;;;;;3.47;1.90;;;13.00;99.90;;;;;;487239;244;28004;-70
2022/07/10 05:08:45;;;;;;;3.37;2.50;;;13.00;99.90;;;;;;487306;244;27999;-73
2022/07/10 05:10:46;;;;;;;5.37;2.47;;;13.00;99.90;;;;;;487306;244;28038;-70
2022/07/10 05:12:47;;;;;;;2.67;2.20;;;12.90;99.90;;;;;;487290;244;27986;-69
2022/07/10 05:14:48;;;;;;;6.73;2.27;;;13.00;99.90;;;;;;487302;244;28297;-69
2022/07/10 05:16:50;;;;;;;5.40;2.30;;;12.90;99.90;;;;;;487269;244;28604;-69
2022/07/10 05:18:51;;;;;;;2.63;2.33;;;12.90;99.90;;;;;;487316;244;28605;-73
2022/07/10 05:20:52;;;;;;;4.87;2.80;;;12.90;99.90;;;;;;487292;241;28031;-69
2022/07/10 05:22:53;;;;;;;5.10;2.73;;;13.00;99.90;;;;;;487282;244;27990;-69
2022/07/10 05:24:55;;;;;;;6.10;2.87;;;12.90;99.90;;;;;;487294;244;28486;-69
2022/07/10 05:26:56;;;;;;;3.03;2.70;;;13.00;99.90;;;;;;487289;244;28595;-70
2022/07/10 05:28:57;;;;;;;3.30;2.40;;;12.90;99.90;;;;;;487302;244;28481;-73
2022/07/10 05:30:58;;;;;;;3.67;2.47;;;12.90;99.90;;;;;;487312;244;28157;-70
2022/07/10 05:33:00;;;;;;;5.20;2.30;;;13.00;99.90;;;;;;487290;244;27876;-71
2022/07/10 05:35:01;;;;;;;3.53;2.47;;;13.10;99.90;;;;;;487310;244;27963;-69
2022/07/10 05:37:03;;;;;;;2.57;2.37;;;;;;;;;;487293;244;28495;-73
2022/07/10 05:39:04;;;;;;;2.80;2.40;;;13.00;99.90;;;;;;487295;243;27048;-69
2022/07/10 05:41:06;;;;;;;6.00;2.50;;;13.10;99.90;;;;;;487308;244;28342;-71
2022/07/10 05:43:07;;;;;;;3.00;2.67;;;13.10;99.90;;;;;;487291;244;28648;-69
2022/07/10 05:45:09;;;;;;;3.03;2.37;;;13.10;99.90;;;;;;487306;244;28478;-70
2022/07/10 05:47:10;;;;;;;6.07;2.87;;;13.20;99.90;;;;;;487326;244;28569;-72
2022/07/10 05:49:11;;;;;;;2.60;2.40;;;13.30;99.90;;;;;;487314;244;28520;-70
2022/07/10 05:51:12;;;;;;;2.40;2.20;;;13.20;99.90;;;;;;487328;244;27991;-71
2022/07/10 05:53:13;;;;;;;4.27;2.60;;;13.30;99.90;;;;;;487266;244;28279;-69
2022/07/10 05:55:15;;;;;;;2.93;2.10;;;13.40;99.90;;;;;;487300;244;27994;-69
2022/07/10 05:57:16;;;;;;;3.70;2.13;;;13.40;99.90;;;;;;487311;244;28190;-70
2022/07/10 05:59:17;;;;;;;6.27;2.40;;;13.50;99.90;;;;;;487317;244;28178;-69
2022/07/10 06:01:18;;;;;;;2.10;2.00;;;13.50;99.90;;;;;;487289;244;28121;-70
2022/07/10 06:03:21;;;;;;;5.77;2.60;;;13.60;99.90;;;;;;487258;244;28510;-70
2022/07/10 06:05:21;;;;;;;3.00;2.10;;;13.50;99.90;;;;;;487176;244;28004;-71
2022/07/10 06:07:22;;;;;;;2.83;1.90;;;13.50;99.90;;;;;;487215;244;28164;-74
2022/07/10 06:09:23;;;;;;;4.07;2.60;;;13.60;99.90;;;;;;487264;244;28668;-69
2022/07/10 06:11:25;;;;;;;3.23;2.37;;;13.40;99.90;;;;;;487254;244;28686;-71
2022/07/10 06:13:26;;;;;;;2.97;2.03;;;13.40;99.90;;;;;;487262;244;28066;-69
2022/07/10 06:15:27;;;;;;;4.13;2.00;;;13.40;99.90;;;;;;487257;244;28070;-69
2022/07/10 06:17:28;;;;;;;2.90;2.27;;;13.50;99.90;;;;;;487273;244;27998;-73
2022/07/10 06:19:30;;;;;;;2.80;2.10;;;13.50;99.90;;;;;;487258;244;28104;-69
2022/07/10 06:21:31;;;;;;;2.83;1.70;;;13.60;99.90;;;;;;487310;244;27989;-70
2022/07/10 06:23:32;;;;;;;3.87;2.23;;;13.50;99.90;;;;;;487268;244;27966;-69
2022/07/10 06:25:33;;;;;;;3.40;2.20;;;13.40;99.90;;;;;;487298;244;28219;-69
2022/07/10 06:27:35;;;;;;;5.93;2.10;;;13.60;99.90;;;;;;487303;244;28707;-71
2022/07/10 06:29:36;;;;;;;2.50;2.30;;;13.80;99.90;;;;;;487299;244;28607;-72
2022/07/10 06:31:37;;;;;;;3.23;1.90;;;13.80;99.90;;;;;;487299;244;28683;-72
2022/07/10 06:33:38;;;;;;;7.50;2.57;;;13.90;99.90;;;;;;487277;244;28426;-70
2022/07/10 06:35:40;;;;;;;2.37;2.00;;;14.10;99.90;;;;;;487282;244;28178;-70
2022/07/10 06:37:41;;;;;;;2.00;1.77;;;14.10;99.90;;;;;;487294;244;28242;-72
2022/07/10 06:39:42;;;;;;;2.33;1.90;;;14.20;99.90;;;;;;487301;244;28380;-71
2022/07/10 06:41:44;;;;;;;2.77;2.00;;;14.30;99.90;;;;;;487301;244;28319;-71
2022/07/10 06:43:45;;;;;;;3.70;1.60;;;14.40;99.90;;;;;;487273;244;28559;-69
2022/07/10 06:45:46;;;;;;;3.77;1.57;;;14.60;99.90;;;;;;487267;244;28603;-70
2022/07/10 06:47:56;;;;;;;2.23;2.03;;;14.70;99.90;;;;;;487298;244;28581;-73
2022/07/10 06:49:57;;;;;;;2.37;1.80;;;14.80;99.90;;;;;;487281;244;28585;-73
2022/07/10 06:51:59;;;;;;;3.37;1.90;;;14.80;99.90;;;;;;487283;244;28651;-69
2022/07/10 06:54:00;;;;;;;4.53;1.87;;;14.60;99.90;;;;;;487277;244;28680;-70
2022/07/10 06:56:01;;;;;;;3.10;1.93;;;14.40;99.90;;;;;;487250;244;28538;-69
2022/07/10 06:58:02;;;;;;;1.70;1.60;;;14.20;99.90;;;;;;487256;244;28643;-71
2022/07/10 07:00:05;;;;;;;2.23;1.77;;;14.20;99.90;;;;;;487282;244;29112;-73
2022/07/10 07:02:05;;;;;;;3.33;1.83;;;14.10;99.90;;;;;;487279;244;28586;-69
2022/07/10 07:04:06;;;;;;;3.80;1.73;;;14.00;99.90;;;;;;487282;244;28667;-70
2022/07/10 07:06:10;;;;;;;2.80;1.70;;;14.00;99.90;;;;;;487283;244;28590;-70
2022/07/10 07:08:09;;;;;;;3.40;1.93;;;14.00;99.90;;;;;;487276;244;28527;-69
2022/07/10 07:10:10;;;;;;;2.17;1.80;;;14.00;99.90;;;;;;487292;244;28797;-71
2022/07/10 07:12:11;;;;;;;3.53;2.40;;;14.10;99.90;;;;;;487327;244;28737;-70
2022/07/10 07:14:13;;;;;;;1.70;1.60;;;14.10;99.90;;;;;;487318;244;29064;-70
2022/07/10 07:16:18;;;;;;;2.17;1.57;;;14.10;99.90;;;;;;487305;244;29090;-69
2022/07/10 07:18:15;;;;;;;1.50;1.50;;;14.10;99.90;;;;;;487249;244;28625;-69
2022/07/10 07:24:56;;;;;;;3.60;1.90;;;14.10;99.90;;;;;;487295;244;29039;-69
2022/07/10 07:26:57;;;;;;;2.20;1.60;;;14.30;99.90;;;;;;487275;244;29073;-69
2022/07/10 07:28:58;;;;;;;2.47;1.97;;;14.40;99.90;;;;;;487297;244;28838;-69
2022/07/10 07:30:59;;;;;;;2.50;1.70;;;14.30;99.90;;;;;;487240;244;28553;-72
2022/07/10 07:33:01;;;;;;;2.80;1.80;;;14.30;99.90;;;;;;487242;244;28592;-73
2022/07/10 07:35:02;;;;;;;1.67;1.57;;;14.20;99.90;;;;;;487236;244;28542;-70
2022/07/10 07:37:03;;;;;;;4.50;1.90;;;14.30;99.90;;;;;;487273;244;28600;-70
2022/07/10 07:39:04;;;;;;;1.87;1.60;;;14.30;99.90;;;;;;487280;244;29005;-69
2022/07/10 07:41:06;;;;;;;1.90;1.43;;;14.30;99.90;;;;;;487273;244;28293;-70
2022/07/10 07:43:07;;;;;;;1.77;1.63;;;14.40;99.90;;;;;;487274;244;28602;-71
2022/07/10 07:45:08;;;;;;;3.73;1.90;;;14.60;99.90;;;;;;487290;244;28551;-69
2022/07/10 07:47:09;;;;;;;2.17;1.70;;;14.70;99.90;;;;;;487240;244;28585;-70
2022/07/10 07:49:11;;;;;;;1.80;1.70;;;14.50;99.90;;;;;;487294;244;29195;-72
2022/07/10 07:51:13;;;;;;;2.07;1.70;;;14.60;99.90;;;;;;487249;244;29003;-69
2022/07/10 07:53:13;;;;;;;2.33;2.10;;;14.70;99.90;;;;;;487282;244;29124;-71
2022/07/10 07:55:15;;;;;;;3.57;2.10;;;14.60;99.90;;;;;;487293;244;28542;-69
2022/07/10 07:57:16;;;;;;;2.60;2.33;;;14.10;99.90;;;;;;487283;244;28592;-70
2022/07/10 07:59:17;;;;;;;2.07;1.87;;;13.90;99.90;;;;;;487279;244;28645;-69
2022/07/10 08:01:19;;;;;;;2.00;1.80;;;14.10;99.90;;;;;;487272;244;28607;-69
2022/07/10 08:03:19;;;;;;;2.00;1.90;;;14.30;99.90;;;;;;487244;244;28592;-70
2022/07/10 08:05:21;;;;;;;3.87;1.80;;;14.30;99.90;;;;;;489688;241;28787;-69
2022/07/10 08:07:22;;;;;;;4.20;1.70;;;14.50;99.90;;;;;;491004;234;28906;-70
2022/07/10 08:09:23;;;;;;;4.10;1.90;;;14.60;99.90;;;;;;490588;240;28906;-73
2022/07/10 08:11:24;;;;;;;2.30;2.10;;;14.60;99.90;;;;;;490593;240;28936;-70
2022/07/10 08:13:26;;;;;;;6.00;3.27;;;14.90;99.90;;;;;;492908;235;29272;-71
2022/07/10 08:15:27;;;;;;;2.53;2.33;;;15.20;99.90;;;;;;489490;237;29316;-71
2022/07/10 08:17:28;;;;;;;2.17;2.07;;;15.40;99.90;;;;;;493859;240;29296;-70
2022/07/10 08:19:29;;;;;;;4.77;2.47;;;15.80;99.90;;;;;;494561;240;29317;-74
2022/07/10 08:21:31;;;;;;;1.80;1.70;;;15.80;99.90;;;;;;492930;241;28811;-71
2022/07/10 08:23:32;;;;;;;2.47;1.57;;;15.90;99.90;;;;;;492908;241;28863;-70
2022/07/10 08:25:35;;;;;;;3.77;2.10;;;15.60;99.90;;;;;;492996;241;28817;-70
2022/07/10 08:27:34;;;;;;;3.43;1.60;;;15.50;99.90;;;;;;492914;241;28825;-70
2022/07/10 08:29:36;;;;;;;2.40;1.90;;;15.80;99.90;;;;;;492985;241;28739;-74
2022/07/10 08:31:39;;;;;;;3.70;2.00;;;15.70;99.90;;;;;;492993;240;28749;-71
2022/07/10 08:33:38;;;;;;;2.10;2.00;;;15.70;99.90;;;;;;492861;241;28764;-72
2022/07/10 08:35:40;;;;;;;2.90;1.93;;;15.40;99.90;;;;;;493025;241;28818;-70
2022/07/10 08:37:41;;;;;;;2.50;1.63;;;15.10;99.90;;;;;;493042;241;28745;-70
2022/07/10 08:39:42;;;;;;;3.00;1.70;;;15.00;99.90;;;;;;493057;241;29233;-74
2022/07/10 08:41:45;;;;;;;3.60;1.73;;;14.90;99.90;;;;;;493038;241;29154;-70
2022/07/10 08:43:45;;;;;;;3.33;1.60;;;14.70;99.90;;;;;;492989;241;29333;-70
2022/07/10 08:45:46;;;;;;;1.70;1.60;;;14.70;99.90;;;;;;493022;241;28845;-69
2022/07/10 08:47:47;;;;;;;1.80;1.70;;;14.70;99.90;;;;;;493083;241;28825;-70
2022/07/10 08:49:48;;;;;;;2.60;1.60;;;15.00;99.90;;;;;;493064;241;28743;-72
2022/07/10 08:51:49;;;;;;;2.83;1.50;;;15.10;99.90;;;;;;493006;241;28857;-70
2022/07/10 08:53:51;;;;;;;3.10;1.67;;;15.40;99.90;;;;;;493017;241;28809;-72
2022/07/10 08:55:52;;;;;;;4.23;1.50;;;15.30;99.90;;;;;;492961;241;28754;-70
2022/07/10 08:57:55;;;;;;;1.47;1.37;;;15.30;99.90;;;;;;493002;241;28760;-70
2022/07/10 08:59:54;;;;;;;3.20;1.80;;;15.20;99.90;;;;;;492907;241;28792;-73
2022/07/10 09:01:56;;;;;;;2.20;1.47;;;15.30;99.90;;;;;;492973;241;28715;-71
2022/07/10 09:03:57;;;;;;;3.00;1.50;;;15.30;99.90;;;;;;492946;241;30022;-70
2022/07/10 09:05:58;;;;;;;1.80;1.70;;;15.50;99.90;;;;;;492938;241;29315;-71
2022/07/10 09:07:59;;;;;;;2.93;1.60;;;15.70;99.90;;;;;;493006;241;29259;-70
2022/07/10 09:10:01;;;;;;;2.70;1.60;;;16.00;99.90;;;;;;493036;241;28761;-73
2022/07/10 09:12:02;;;;;;;2.23;1.60;;;15.90;99.90;;;;;;493039;241;28873;-70
2022/07/10 09:14:04;;;;;;;4.73;1.40;;;15.80;99.90;;;;;;493045;241;28821;-71
2022/07/10 09:16:04;;;;;;;1.40;1.30;;;15.90;99.90;;;;;;492954;241;28830;-72
2022/07/10 09:18:09;;;;;;;1.67;1.50;;;16.00;99.90;;;;;;492974;241;28743;-70
2022/07/10 09:20:10;;;;;;;3.10;1.50;;;16.00;99.90;;;;;;492982;241;28756;-70
2022/07/10 09:22:11;;;;;;;4.87;1.60;;;15.90;99.90;;;;;;492917;241;28744;-70
2022/07/10 09:24:12;;;;;;;2.43;1.53;;;15.80;99.90;;;;;;492928;241;28826;-71
2022/07/10 09:26:13;;;;;;;1.70;1.40;;;16.20;99.90;;;;;;492920;241;29355;-72
2022/07/10 09:28:15;;;;;;;2.17;1.40;;;16.40;99.90;;;;;;491051;241;36431;-70
2022/07/10 09:30:16;;;;;;;3.90;1.33;;;16.50;99.90;;;;;;492935;241;28017;-71
2022/07/10 09:32:17;;;;;;;1.97;1.50;;;16.40;99.90;;;;;;492990;241;29323;-69
2022/07/10 09:34:18;;;;;;;2.13;1.67;;;16.40;99.90;;;;;;492998;241;28852;-69
2022/07/10 09:36:20;;;;;;;2.40;1.70;;;16.40;99.90;;;;;;492995;241;28759;-72
2022/07/10 09:38:21;;;;;;;1.50;1.40;;;16.40;99.90;;;;;;491327;238;28733;-70
2022/07/10 09:40:22;;;;;;;2.90;1.77;;;16.30;99.90;;;;;;486716;238;28722;-70
2022/07/10 09:42:23;;;;;;;1.53;1.43;;;16.60;99.90;;;;;;492297;241;29245;-69
2022/07/10 09:44:25;;;;;;;1.83;1.53;;;16.30;99.90;;;;;;492413;241;28841;-69
2022/07/10 09:46:26;;;;;;;1.93;1.80;;;16.50;99.90;;;;;;492422;241;28778;-71
2022/07/10 09:48:27;;;;;;;2.70;1.57;;;16.40;99.90;;;;;;492396;241;28821;-70
2022/07/10 09:50:29;;;;;;;2.50;1.47;;;16.30;99.90;;;;;;492446;241;29293;-69
2022/07/10 09:52:30;;;;;;;2.30;1.63;;;16.50;99.90;;;;;;492394;241;29303;-72
2022/07/10 09:54:31;;;;;;;6.17;1.77;;;16.20;99.90;;;;;;492431;241;29243;-69
2022/07/10 09:56:32;;;;;;;2.20;1.40;;;16.00;99.90;;;;;;492429;241;29348;-70
2022/07/10 09:58:35;;;;;;;1.83;1.30;;;16.00;99.90;;;;;;492202;241;28769;-69
2022/07/10 10:00:35;;;;;;;1.60;1.50;;;16.10;99.90;;;;;;492820;240;28690;-69
2022/07/10 10:02:36;;;;;;;1.50;1.40;;;16.20;99.90;;;;;;493167;241;28740;-75
2022/07/10 10:04:37;;;;;;;2.67;1.53;;;16.40;99.90;;;;;;493132;241;28733;-69
2022/07/10 10:06:38;;;;;;;1.80;1.30;;;16.60;99.90;;;;;;493177;241;28797;-70
2022/07/10 10:08:40;;;;;;;3.80;1.67;;;16.60;99.90;;;;;;492375;241;28734;-69
2022/07/10 10:10:41;;;;;;;1.77;1.67;;;16.60;99.90;;;;;;491955;242;28819;-70
2022/07/10 10:12:42;;;;;;;1.50;1.40;;;16.50;99.90;;;;;;491965;242;28803;-71
2022/07/10 10:14:44;;;;;;;1.50;1.40;;;16.60;99.90;;;;;;491947;242;28725;-69
2022/07/10 10:16:45;;;;;;;1.43;1.33;;;17.00;99.90;;;;;;492009;242;29246;-72
2022/07/10 10:21:07;;;;;;;3.77;1.50;;;17.10;99.90;;;;;;491880;242;28691;-70
2022/07/10 10:23:07;;;;;;;1.50;1.40;;;16.90;99.90;;;;;;491830;242;28693;-71
2022/07/10 10:25:08;;;;;;;2.87;1.40;;;16.60;99.90;;;;;;491950;242;28708;-70
2022/07/10 10:27:09;;;;;;;2.80;1.70;;;16.60;99.90;;;;;;491917;242;28791;-70
2022/07/10 10:29:10;;;;;;;2.73;1.90;;;16.90;99.90;;;;;;491945;242;29180;-69
2022/07/10 10:31:12;;;;;;;2.50;1.60;;;16.80;99.90;;;;;;491921;242;29290;-70
2022/07/10 10:33:14;;;;;;;2.17;1.37;;;17.00;99.90;;;;;;492703;241;29388;-70
2022/07/10 10:35:15;;;;;;;2.43;1.90;;;17.30;99.90;;;;;;493184;241;28766;-69
2022/07/10 10:37:15;;;;;;;2.10;1.50;;;17.20;99.90;;;;;;493154;240;28813;-71
2022/07/10 10:39:17;;;;;;;2.70;1.60;;;17.40;99.90;;;;;;493125;241;28694;-69